createdAt,value
2022-10-30T00:01:12.421Z,26.90
2022-10-30T00:03:39.575Z,26.90
2022-10-30T00:06:07.003Z,26.90
2022-10-30T00:08:34.311Z,26.90
2022-10-30T00:11:13.113Z,26.90
2022-10-30T00:13:42.171Z,27.00
2022-10-30T00:16:09.578Z,26.90
2022-10-30T00:18:38.613Z,26.90
2022-10-30T00:21:11.496Z,26.90
2022-10-30T00:23:38.974Z,26.90
2022-10-30T00:26:07.831Z,26.90
2022-10-30T00:28:35.219Z,26.90
2022-10-30T00:31:04.814Z,26.90
2022-10-30T00:33:32.459Z,26.90
2022-10-30T00:36:01.069Z,26.90
2022-10-30T00:38:28.214Z,26.90
2022-10-30T00:40:55.124Z,26.90
2022-10-30T00:43:36.209Z,26.90
2022-10-30T00:46:12.415Z,26.90
2022-10-30T00:48:39.746Z,26.90
2022-10-30T00:51:12.096Z,26.90
2022-10-30T00:53:42.152Z,26.90
2022-10-30T00:56:11.633Z,26.80
2022-10-30T00:58:48.376Z,26.90
2022-10-30T01:01:22.234Z,26.90
2022-10-30T01:03:59.120Z,26.80
2022-10-30T01:06:28.920Z,26.90
2022-10-30T01:08:59.819Z,26.80
2022-10-30T01:11:27.641Z,26.80
2022-10-30T01:14:00.366Z,26.90
2022-10-30T01:16:51.331Z,26.80
2022-10-30T01:19:59.606Z,26.80
2022-10-30T01:22:57.213Z,26.80
2022-10-30T01:26:01.695Z,26.80
2022-10-30T01:29:01.777Z,26.80
2022-10-30T01:32:10.142Z,26.80
2022-10-30T01:35:19.045Z,26.80
2022-10-30T01:37:54.860Z,26.80
2022-10-30T01:40:22.209Z,26.80
2022-10-30T01:42:54.235Z,26.80
2022-10-30T01:45:49.560Z,26.80
2022-10-30T01:48:57.209Z,26.80
2022-10-30T01:52:00.318Z,26.80
2022-10-30T01:54:42.856Z,26.80
2022-10-30T01:57:21.265Z,26.80
2022-10-30T01:59:56.974Z,26.80
2022-10-30T02:02:26.956Z,26.80
2022-10-30T02:04:54.103Z,26.80
2022-10-30T02:07:21.206Z,26.70
2022-10-30T02:09:51.230Z,26.70
2022-10-30T02:12:19.751Z,26.80
2022-10-30T02:14:52.888Z,26.70
2022-10-30T02:17:21.094Z,26.70
2022-10-30T02:19:47.950Z,26.80
2022-10-30T02:22:14.977Z,26.70
2022-10-30T02:24:41.876Z,26.70
2022-10-30T02:27:11.153Z,26.70
2022-10-30T02:29:37.997Z,26.70
2022-10-30T02:32:05.034Z,26.70
2022-10-30T02:34:31.886Z,26.70
2022-10-30T02:36:58.801Z,26.70
2022-10-30T02:39:25.713Z,26.70
2022-10-30T02:41:52.603Z,26.70
2022-10-30T02:44:19.437Z,26.70
2022-10-30T02:46:46.338Z,26.70
2022-10-30T02:49:13.417Z,26.70
2022-10-30T02:51:40.307Z,26.70
2022-10-30T02:54:07.282Z,26.70
2022-10-30T02:56:34.127Z,26.70
2022-10-30T02:59:01.111Z,26.70
2022-10-30T03:01:28.152Z,26.70
2022-10-30T03:03:55.232Z,26.70
2022-10-30T03:06:23.424Z,26.60
2022-10-30T03:08:50.995Z,26.70
2022-10-30T03:11:22.746Z,26.60
2022-10-30T03:13:52.004Z,26.70
2022-10-30T03:16:29.480Z,26.70
2022-10-30T03:18:57.632Z,26.60
2022-10-30T03:21:27.249Z,26.60
2022-10-30T03:23:55.210Z,26.60
2022-10-30T03:26:22.654Z,26.60
2022-10-30T03:28:49.532Z,26.60
2022-10-30T03:31:19.399Z,26.60
2022-10-30T03:33:47.140Z,26.60
2022-10-30T03:36:15.557Z,26.60
2022-10-30T03:38:43.091Z,26.60
2022-10-30T03:41:10.455Z,26.60
2022-10-30T03:43:37.341Z,26.60
2022-10-30T03:46:04.841Z,26.60
2022-10-30T03:48:31.760Z,26.60
2022-10-30T03:51:00.145Z,26.60
2022-10-30T03:53:30.073Z,26.60
2022-10-30T03:56:03.090Z,26.60
2022-10-30T03:58:30.646Z,26.60
2022-10-30T04:01:06.293Z,26.60
2022-10-30T04:03:33.550Z,26.60
2022-10-30T04:06:00.637Z,26.60
2022-10-30T04:08:27.728Z,26.50
2022-10-30T04:10:54.681Z,26.50
2022-10-30T04:13:21.560Z,26.50
2022-10-30T04:15:56.174Z,26.60
2022-10-30T04:18:25.791Z,26.60
2022-10-30T04:20:53.041Z,26.50
2022-10-30T04:23:21.991Z,26.50
2022-10-30T04:25:49.185Z,26.50
2022-10-30T04:28:16.588Z,26.50
2022-10-30T04:30:43.906Z,26.50
2022-10-30T04:33:13.695Z,26.50
2022-10-30T04:35:42.164Z,26.50
2022-10-30T04:38:14.840Z,26.50
2022-10-30T04:40:43.734Z,26.50
2022-10-30T04:43:11.847Z,26.50
2022-10-30T04:45:39.539Z,26.50
2022-10-30T04:48:09.060Z,26.50
2022-10-30T04:50:35.994Z,26.50
2022-10-30T04:53:15.719Z,26.50
2022-10-30T04:55:44.273Z,26.50
2022-10-30T04:58:12.549Z,26.50
2022-10-30T05:00:39.901Z,26.50
2022-10-30T05:03:07.003Z,26.50
2022-10-30T05:05:33.847Z,26.40
2022-10-30T05:08:01.053Z,26.40
2022-10-30T05:10:28.317Z,26.50
2022-10-30T05:12:55.163Z,26.50
2022-10-30T05:15:22.482Z,26.40
2022-10-30T05:17:56.752Z,26.40
2022-10-30T05:20:23.916Z,26.40
2022-10-30T05:22:59.490Z,26.40
2022-10-30T05:25:27.824Z,26.40
2022-10-30T05:28:02.789Z,26.40
2022-10-30T05:30:31.730Z,26.40
2022-10-30T05:33:04.445Z,26.40
2022-10-30T05:35:32.807Z,26.40
2022-10-30T05:38:01.292Z,26.40
2022-10-30T05:40:28.607Z,26.40
2022-10-30T05:42:55.870Z,26.40
2022-10-30T05:45:22.907Z,26.40
2022-10-30T05:48:06.706Z,26.40
2022-10-30T05:50:33.972Z,26.40
2022-10-30T05:53:04.221Z,26.40
2022-10-30T05:55:32.056Z,26.30
2022-10-30T05:58:02.850Z,26.30
2022-10-30T06:00:32.543Z,26.30
2022-10-30T06:03:10.171Z,26.30
2022-10-30T06:05:38.095Z,26.30
2022-10-30T06:08:07.995Z,26.30
2022-10-30T06:10:35.661Z,26.30
2022-10-30T06:13:06.260Z,26.30
2022-10-30T06:15:36.212Z,26.30
2022-10-30T06:18:03.240Z,26.30
2022-10-30T06:20:31.815Z,26.30
2022-10-30T06:23:08.472Z,26.30
2022-10-30T06:25:41.088Z,26.30
2022-10-30T06:28:11.903Z,26.30
2022-10-30T06:30:39.041Z,26.30
2022-10-30T06:33:07.124Z,26.30
2022-10-30T06:35:34.148Z,26.30
2022-10-30T06:38:01.058Z,26.30
2022-10-30T06:40:32.173Z,26.30
2022-10-30T06:42:59.548Z,26.30
2022-10-30T06:45:30.022Z,26.30
2022-10-30T06:47:58.120Z,26.20
2022-10-30T06:50:25.332Z,26.20
2022-10-30T06:52:52.436Z,26.20
2022-10-30T06:55:19.394Z,26.20
2022-10-30T06:57:46.407Z,26.20
2022-10-30T07:00:14.365Z,25.90
2022-10-30T07:02:41.213Z,26.20
2022-10-30T07:05:08.232Z,26.30
2022-10-30T07:07:35.294Z,26.20
2022-10-30T07:10:02.225Z,26.30
2022-10-30T07:12:29.117Z,26.20
2022-10-30T07:14:56.285Z,26.20
2022-10-30T07:17:23.190Z,26.20
2022-10-30T07:19:50.125Z,26.30
2022-10-30T07:22:17.146Z,26.20
2022-10-30T07:24:44.049Z,26.20
2022-10-30T07:27:10.937Z,26.30
2022-10-30T07:29:38.180Z,26.20
2022-10-30T07:32:05.465Z,26.20
2022-10-30T07:34:32.658Z,26.20
2022-10-30T07:36:59.604Z,26.20
2022-10-30T07:39:26.633Z,26.20
2022-10-30T07:41:53.568Z,26.20
2022-10-30T07:44:20.690Z,26.30
2022-10-30T07:46:47.678Z,26.20
2022-10-30T07:49:14.498Z,26.20
2022-10-30T07:51:41.349Z,26.20
2022-10-30T07:54:08.305Z,26.20
2022-10-30T07:56:35.254Z,26.20
2022-10-30T07:59:02.260Z,26.20
2022-10-30T08:01:29.345Z,26.20
2022-10-30T08:03:56.262Z,26.30
2022-10-30T08:06:26.367Z,26.30
2022-10-30T08:08:54.315Z,26.30
2022-10-30T08:11:21.304Z,26.20
2022-10-30T08:13:48.217Z,26.20
2022-10-30T08:16:15.206Z,26.30
2022-10-30T08:18:42.599Z,26.30
2022-10-30T08:21:10.484Z,26.30
2022-10-30T08:23:37.501Z,25.80
2022-10-30T08:26:05.537Z,26.30
2022-10-30T08:28:33.339Z,26.30
2022-10-30T08:31:02.353Z,26.30
2022-10-30T08:33:29.507Z,26.30
2022-10-30T08:35:59.311Z,26.30
2022-10-30T08:38:27.809Z,26.30
2022-10-30T08:40:55.933Z,26.40
2022-10-30T08:43:25.271Z,26.30
2022-10-30T08:45:52.243Z,26.40
2022-10-30T08:48:19.195Z,26.40
2022-10-30T08:50:46.149Z,26.40
2022-10-30T08:53:15.464Z,26.40
2022-10-30T08:55:42.774Z,26.40
2022-10-30T08:58:10.120Z,26.40
2022-10-30T09:00:37.087Z,26.40
2022-10-30T09:03:04.490Z,26.40
2022-10-30T09:05:31.923Z,26.40
2022-10-30T09:08:01.498Z,26.40
2022-10-30T09:10:29.872Z,26.40
2022-10-30T09:13:02.455Z,26.40
2022-10-30T09:15:29.990Z,26.50
2022-10-30T09:18:03.133Z,26.40
2022-10-30T09:20:31.403Z,26.40
2022-10-30T09:22:59.007Z,26.50
2022-10-30T09:25:26.517Z,26.50
2022-10-30T09:27:53.425Z,26.50
2022-10-30T09:30:21.084Z,26.50
2022-10-30T09:33:02.740Z,26.50
2022-10-30T09:35:32.312Z,26.50
2022-10-30T09:37:59.597Z,26.50
2022-10-30T09:40:46.867Z,26.50
2022-10-30T09:44:02.143Z,26.60
2022-10-30T09:47:07.255Z,26.60
2022-10-30T09:49:53.795Z,26.60
2022-10-30T09:52:35.542Z,26.60
2022-10-30T09:55:17.826Z,26.70
2022-10-30T09:57:56.476Z,26.70
2022-10-30T10:00:34.658Z,26.70
2022-10-30T10:03:46.048Z,26.70
2022-10-30T10:06:20.139Z,26.80
2022-10-30T10:08:53.248Z,26.80
2022-10-30T10:11:29.230Z,26.80
2022-10-30T10:14:24.441Z,26.80
2022-10-30T10:16:58.111Z,26.80
2022-10-30T10:19:55.507Z,26.80
2022-10-30T10:22:48.000Z,26.90
2022-10-30T10:25:20.913Z,27.00
2022-10-30T10:28:13.905Z,27.00
2022-10-30T10:31:12.186Z,27.00
2022-10-30T10:34:09.070Z,27.10
2022-10-30T10:37:08.894Z,27.10
2022-10-30T10:39:54.803Z,27.20
2022-10-30T10:42:37.129Z,27.30
2022-10-30T10:45:37.331Z,27.40
2022-10-30T10:48:17.012Z,27.40
2022-10-30T10:50:55.677Z,27.50
2022-10-30T10:53:34.783Z,27.60
2022-10-30T10:56:02.072Z,27.70
2022-10-30T10:58:54.573Z,27.80
2022-10-30T11:01:35.099Z,27.90
2022-10-30T11:04:40.741Z,27.90
2022-10-30T11:07:30.200Z,28.10
2022-10-30T11:09:58.629Z,28.20
2022-10-30T11:12:36.566Z,28.30
2022-10-30T11:15:29.300Z,28.40
2022-10-30T11:18:03.466Z,28.50
2022-10-30T11:21:04.239Z,28.60
2022-10-30T11:23:46.470Z,28.70
2022-10-30T11:26:20.265Z,28.80
2022-10-30T11:28:57.015Z,29.00
2022-10-30T11:31:40.349Z,29.00
2022-10-30T11:34:19.344Z,29.10
2022-10-30T11:36:52.494Z,29.20
2022-10-30T11:39:24.841Z,29.30
2022-10-30T11:42:00.176Z,29.30
2022-10-30T11:44:40.797Z,29.40
2022-10-30T11:47:10.447Z,29.40
2022-10-30T11:49:49.891Z,29.40
2022-10-30T11:52:22.262Z,29.50
2022-10-30T11:55:00.209Z,29.60
2022-10-30T11:57:43.105Z,29.60
2022-10-30T12:00:34.592Z,29.70
2022-10-30T12:03:03.684Z,29.70
2022-10-30T12:05:30.711Z,29.70
2022-10-30T12:08:06.720Z,29.70
2022-10-30T12:10:45.551Z,29.70
2022-10-30T12:13:18.940Z,29.70
2022-10-30T12:15:50.294Z,29.60
2022-10-30T12:21:01.825Z,29.60
2022-10-30T12:23:31.000Z,29.50
2022-10-30T12:26:11.036Z,29.50
2022-10-30T12:28:40.611Z,29.40
2022-10-30T12:31:23.514Z,29.60
2022-10-30T12:34:32.080Z,29.30
2022-10-30T12:37:32.182Z,29.30
2022-10-30T12:40:20.482Z,29.20
2022-10-30T12:42:59.109Z,29.10
2022-10-30T12:45:51.203Z,29.10
2022-10-30T12:48:49.199Z,29.00
2022-10-30T12:51:35.472Z,29.00
2022-10-30T12:54:26.959Z,28.90
2022-10-30T12:57:17.118Z,28.90
2022-10-30T13:00:14.690Z,28.80
2022-10-30T13:03:01.347Z,28.80
2022-10-30T13:05:45.664Z,28.70
2022-10-30T13:08:25.509Z,28.70
2022-10-30T13:11:26.539Z,28.70
2022-10-30T13:13:56.069Z,28.60
2022-10-30T13:16:29.238Z,28.50
2022-10-30T13:19:03.311Z,28.50
2022-10-30T13:22:07.296Z,28.50
2022-10-30T13:25:02.641Z,28.50
2022-10-30T13:27:48.068Z,28.50
2022-10-30T13:30:22.605Z,28.40
2022-10-30T13:33:23.889Z,28.40
2022-10-30T13:36:24.408Z,28.40
2022-10-30T13:39:20.052Z,28.40
2022-10-30T13:42:11.200Z,28.30
2022-10-30T13:45:08.757Z,28.30
2022-10-30T13:48:18.581Z,28.30
2022-10-30T13:51:04.630Z,28.30
2022-10-30T13:53:37.220Z,28.20
2022-10-30T13:56:05.409Z,28.20
2022-10-30T13:59:00.225Z,28.20
2022-10-30T14:01:57.584Z,28.20
2022-10-30T14:04:58.970Z,28.20
2022-10-30T14:08:25.357Z,28.20
2022-10-30T14:11:00.407Z,28.20
2022-10-30T14:13:45.665Z,28.10
2022-10-30T14:16:42.051Z,28.10
2022-10-30T14:19:12.965Z,28.10
2022-10-30T14:22:00.024Z,28.10
2022-10-30T14:24:33.686Z,28.10
2022-10-30T14:27:06.527Z,28.10
2022-10-30T14:29:36.251Z,28.10
2022-10-30T14:32:15.159Z,28.00
2022-10-30T14:34:58.724Z,28.00
2022-10-30T14:37:28.903Z,28.00
2022-10-30T14:39:58.920Z,28.00
2022-10-30T14:42:53.717Z,28.00
2022-10-30T14:45:27.523Z,28.00
2022-10-30T14:48:22.379Z,28.00
2022-10-30T14:51:23.047Z,28.00
2022-10-30T14:54:18.638Z,28.00
2022-10-30T14:56:54.150Z,28.00
2022-10-30T14:59:31.778Z,28.40
2022-10-30T15:02:30.489Z,28.00
2022-10-30T15:05:37.436Z,28.00
2022-10-30T15:09:09.017Z,27.90
2022-10-30T15:12:08.065Z,27.90
2022-10-30T15:14:54.136Z,28.00
2022-10-30T15:17:33.051Z,27.90
2022-10-30T15:20:07.049Z,27.90
2022-10-30T15:22:35.363Z,27.60
2022-10-30T15:25:04.959Z,27.80
2022-10-30T15:27:35.776Z,27.80
2022-10-30T15:30:05.094Z,27.80
2022-10-30T15:32:32.535Z,27.80
2022-10-30T15:35:13.189Z,27.80
2022-10-30T15:37:40.212Z,27.90
2022-10-30T15:40:21.063Z,27.80
2022-10-30T15:42:51.033Z,27.80
2022-10-30T15:45:27.896Z,27.80
2022-10-30T15:48:22.125Z,27.80
2022-10-30T15:51:08.155Z,27.80
2022-10-30T15:53:47.732Z,27.80
2022-10-30T15:56:21.310Z,27.80
2022-10-30T15:58:56.868Z,27.80
2022-10-30T16:01:40.739Z,27.80
2022-10-30T16:04:22.073Z,27.80
2022-10-30T16:06:59.603Z,27.80
2022-10-30T16:09:28.828Z,27.70
2022-10-30T16:12:01.333Z,27.70
2022-10-30T16:14:32.723Z,27.70
2022-10-30T16:17:00.715Z,27.70
2022-10-30T16:19:34.156Z,28.10
2022-10-30T16:22:01.180Z,27.60
2022-10-30T16:24:37.159Z,27.70
2022-10-30T16:27:18.399Z,27.70
2022-10-30T16:29:53.259Z,27.70
2022-10-30T16:32:25.241Z,27.70
2022-10-30T16:35:00.781Z,27.70
2022-10-30T16:37:35.608Z,27.70
2022-10-30T16:40:15.260Z,27.70
2022-10-30T16:42:54.276Z,27.70
2022-10-30T16:45:24.173Z,27.70
2022-10-30T16:50:45.077Z,27.80
2022-10-30T16:53:22.075Z,27.70
2022-10-30T16:55:49.774Z,27.80
2022-10-30T16:58:18.158Z,27.70
2022-10-30T17:00:56.103Z,27.70
2022-10-30T17:03:31.579Z,27.80
2022-10-30T17:06:25.916Z,27.70
2022-10-30T17:08:57.572Z,27.70
2022-10-30T17:12:13.789Z,27.80
2022-10-30T17:15:17.887Z,27.80
2022-10-30T17:18:11.995Z,27.80
2022-10-30T17:20:39.816Z,27.70
2022-10-30T17:23:19.882Z,27.70
2022-10-30T17:25:48.945Z,27.70
2022-10-30T17:28:34.391Z,27.70
2022-10-30T17:31:38.888Z,27.70
2022-10-30T17:34:20.848Z,27.70
2022-10-30T17:36:50.113Z,27.70
2022-10-30T17:39:17.117Z,27.60
2022-10-30T17:41:44.391Z,27.60
2022-10-30T17:44:22.995Z,27.60
2022-10-30T17:46:54.621Z,27.60
2022-10-30T17:49:32.269Z,27.50
2022-10-30T17:51:59.874Z,27.50
2022-10-30T17:54:26.980Z,27.50
2022-10-30T17:56:58.890Z,27.50
2022-10-30T17:59:25.833Z,27.50
2022-10-30T18:01:52.937Z,27.50
2022-10-30T18:04:21.489Z,27.50
2022-10-30T18:06:49.561Z,27.50
2022-10-30T18:09:16.539Z,27.40
2022-10-30T18:11:43.753Z,27.40
2022-10-30T18:14:12.151Z,27.40
2022-10-30T18:16:39.304Z,27.40
2022-10-30T18:19:10.806Z,27.40
2022-10-30T18:21:38.248Z,27.40
2022-10-30T18:24:15.615Z,27.30
2022-10-30T18:26:42.876Z,27.30
2022-10-30T18:29:11.416Z,27.30
2022-10-30T18:31:39.916Z,27.30
2022-10-30T18:34:30.124Z,27.30
2022-10-30T18:36:57.033Z,27.30
2022-10-30T18:39:24.147Z,27.30
2022-10-30T18:41:51.242Z,27.30
2022-10-30T18:44:19.157Z,27.30
2022-10-30T18:46:46.641Z,27.20
2022-10-30T18:49:13.804Z,27.20
2022-10-30T18:51:46.468Z,27.20
2022-10-30T18:54:21.273Z,27.20
2022-10-30T18:56:48.257Z,27.20
2022-10-30T18:59:15.228Z,27.10
2022-10-30T19:01:42.184Z,27.10
2022-10-30T19:04:10.860Z,27.20
2022-10-30T19:06:40.781Z,27.10
2022-10-30T19:09:07.869Z,27.10
2022-10-30T19:11:37.301Z,27.10
2022-10-30T19:14:13.620Z,27.10
2022-10-30T19:16:40.734Z,27.10
2022-10-30T19:19:10.332Z,27.10
2022-10-30T19:21:37.244Z,27.10
2022-10-30T19:24:13.600Z,27.10
2022-10-30T19:26:40.866Z,27.10
2022-10-30T19:29:07.772Z,27.00
2022-10-30T19:31:34.942Z,27.00
2022-10-30T19:34:01.903Z,27.00
2022-10-30T19:36:37.855Z,27.00
2022-10-30T19:39:19.255Z,27.00
2022-10-30T19:41:46.244Z,27.00
2022-10-30T19:44:13.304Z,27.00
2022-10-30T19:46:40.305Z,27.00
2022-10-30T19:49:19.358Z,27.00
2022-10-30T19:51:47.020Z,27.00
2022-10-30T19:54:17.724Z,27.00
2022-10-30T19:56:44.735Z,26.90
2022-10-30T19:59:15.976Z,26.90
2022-10-30T20:01:44.496Z,27.00
2022-10-30T20:04:12.181Z,26.90
2022-10-30T20:06:39.545Z,26.90
2022-10-30T20:09:10.903Z,26.90
2022-10-30T20:11:38.041Z,26.90
2022-10-30T20:14:05.040Z,26.90
2022-10-30T20:16:31.924Z,26.90
2022-10-30T20:18:58.950Z,26.90
2022-10-30T20:21:27.982Z,26.90
2022-10-30T20:23:57.076Z,26.90
2022-10-30T20:26:30.106Z,26.80
2022-10-30T20:29:03.289Z,26.90
2022-10-30T20:31:30.172Z,26.80
2022-10-30T20:33:57.132Z,26.80
2022-10-30T20:36:26.250Z,26.80
2022-10-30T20:38:53.285Z,26.80
2022-10-30T20:41:30.071Z,26.80
2022-10-30T20:43:57.149Z,26.80
2022-10-30T20:46:26.961Z,26.80
2022-10-30T20:48:57.186Z,26.80
2022-10-30T20:51:24.396Z,26.80
2022-10-30T20:53:51.674Z,26.80
2022-10-30T20:56:18.808Z,26.80
2022-10-30T20:58:45.858Z,26.80
2022-10-30T21:01:15.888Z,26.80
2022-10-30T21:03:43.075Z,26.70
2022-10-30T21:06:10.391Z,26.80
2022-10-30T21:08:37.830Z,26.70
2022-10-30T21:11:08.512Z,26.70
2022-10-30T21:13:37.166Z,26.70
2022-10-30T21:16:08.374Z,26.70
2022-10-30T21:18:35.873Z,26.70
2022-10-30T21:21:07.047Z,26.70
2022-10-30T21:23:34.544Z,26.70
2022-10-30T21:26:06.866Z,26.70
2022-10-30T21:28:34.506Z,26.70
2022-10-30T21:31:08.110Z,26.70
2022-10-30T21:33:38.929Z,26.70
2022-10-30T21:36:14.069Z,26.60
2022-10-30T21:38:44.445Z,26.60
2022-10-30T21:41:15.153Z,26.60
2022-10-30T21:43:43.671Z,26.60
2022-10-30T21:46:13.460Z,26.60
2022-10-30T21:48:40.942Z,26.60
2022-10-30T21:51:12.642Z,26.60
2022-10-30T21:53:41.040Z,26.60
2022-10-30T21:56:26.428Z,26.60
2022-10-30T21:58:56.415Z,26.60
2022-10-30T22:01:30.309Z,26.50
2022-10-30T22:04:00.765Z,26.50
2022-10-30T22:06:29.423Z,26.50
2022-10-30T22:08:58.150Z,26.60
2022-10-30T22:11:28.640Z,26.50
2022-10-30T22:13:59.528Z,26.50
2022-10-30T22:16:29.464Z,26.50
2022-10-30T22:18:58.146Z,26.50
2022-10-30T22:21:28.371Z,26.50
2022-10-30T22:24:02.007Z,26.50
2022-10-30T22:26:32.924Z,26.50
2022-10-30T22:29:04.155Z,26.50
2022-10-30T22:31:34.147Z,26.50
2022-10-30T22:34:05.109Z,26.50
2022-10-30T22:36:34.608Z,26.50
2022-10-30T22:39:08.023Z,26.50
2022-10-30T22:41:37.936Z,26.50
2022-10-30T22:44:13.591Z,26.50
2022-10-30T22:46:45.025Z,26.50
2022-10-30T22:49:12.755Z,26.50
2022-10-30T22:51:40.725Z,26.50
2022-10-30T22:54:15.033Z,26.50
2022-10-30T22:56:42.330Z,26.40
2022-10-30T22:59:14.319Z,26.40
2022-10-30T23:01:42.857Z,26.50
2022-10-30T23:04:14.235Z,26.40
2022-10-30T23:06:42.040Z,26.40
2022-10-30T23:09:19.635Z,26.10
2022-10-30T23:11:46.707Z,26.40
2022-10-30T23:14:15.371Z,26.40
2022-10-30T23:16:42.591Z,26.40
2022-10-30T23:19:11.221Z,26.40
2022-10-30T23:21:38.807Z,26.40
2022-10-30T23:24:06.889Z,26.40
2022-10-30T23:26:35.943Z,26.40
2022-10-30T23:29:04.130Z,26.40
2022-10-30T23:31:39.432Z,26.40
2022-10-30T23:34:12.591Z,26.40
2022-10-30T23:36:41.062Z,26.40
2022-10-30T23:39:18.461Z,26.40
2022-10-30T23:41:46.109Z,26.40
2022-10-30T23:44:15.757Z,26.40
2022-10-30T23:46:43.841Z,26.40
2022-10-30T23:49:10.931Z,25.40
2022-10-30T23:51:38.230Z,26.30
2022-10-30T23:54:05.928Z,26.40
2022-10-30T23:56:35.584Z,26.40
2022-10-30T23:59:15.745Z,27.60
